createdAt,value
2018-06-01T00:00:37.597Z,0.00
2018-06-01T00:01:37.574Z,0.00
2018-06-01T00:02:37.566Z,0.00
2018-06-01T00:03:37.566Z,0.00
2018-06-01T00:04:37.558Z,0.00
2018-06-01T00:05:37.554Z,0.00
2018-06-01T00:06:37.549Z,0.00
2018-06-01T00:07:37.546Z,0.00
2018-06-01T00:08:37.542Z,0.00
2018-06-01T00:09:37.539Z,0.00
2018-06-01T00:10:37.535Z,0.00
2018-06-01T00:11:37.533Z,0.00
2018-06-01T00:12:37.529Z,0.00
2018-06-01T00:13:37.525Z,0.00
2018-06-01T00:14:37.522Z,0.00
2018-06-01T00:15:37.517Z,0.00
2018-06-01T00:16:37.513Z,0.00
2018-06-01T00:17:37.510Z,0.00
2018-06-01T00:18:37.506Z,0.00
2018-06-01T00:19:37.500Z,0.00
2018-06-01T00:20:37.498Z,0.00
2018-06-01T00:21:37.496Z,0.00
2018-06-01T00:22:37.493Z,0.00
2018-06-01T00:23:37.488Z,0.00
2018-06-01T00:24:37.481Z,0.00
2018-06-01T00:25:37.483Z,0.00
2018-06-01T00:26:37.475Z,0.00
2018-06-01T00:27:37.471Z,0.00
2018-06-01T00:28:37.467Z,0.00
2018-06-01T00:29:37.464Z,0.00
2018-06-01T00:30:37.460Z,0.00
2018-06-01T00:31:37.455Z,0.00
2018-06-01T00:32:37.451Z,0.00
2018-06-01T00:33:37.448Z,0.00
2018-06-01T00:34:37.445Z,0.00
2018-06-01T00:35:37.440Z,0.00
2018-06-01T00:36:37.437Z,0.00
2018-06-01T00:37:37.433Z,0.00
2018-06-01T00:38:37.429Z,0.00
2018-06-01T00:39:37.427Z,0.00
2018-06-01T00:40:37.423Z,0.00
2018-06-01T00:41:37.423Z,0.00
2018-06-01T00:42:37.418Z,0.00
2018-06-01T00:43:37.410Z,0.00
2018-06-01T00:44:37.412Z,0.00
2018-06-01T00:45:37.408Z,0.00
2018-06-01T00:46:37.404Z,0.00
2018-06-01T00:47:37.396Z,0.00
2018-06-01T00:48:37.393Z,0.00
2018-06-01T00:49:37.389Z,0.00
2018-06-01T00:50:37.394Z,0.00
2018-06-01T00:51:37.384Z,0.00
2018-06-01T00:52:37.380Z,0.00
2018-06-01T00:53:37.377Z,0.00
2018-06-01T00:54:37.372Z,0.00
2018-06-01T00:55:37.369Z,0.00
2018-06-01T00:56:37.366Z,0.00
2018-06-01T00:57:37.362Z,0.00
2018-06-01T00:58:37.357Z,0.00
2018-06-01T00:59:37.355Z,0.00
2018-06-01T01:00:37.352Z,0.00
2018-06-01T01:01:37.348Z,0.00
2018-06-01T01:02:37.343Z,0.00
2018-06-01T01:03:37.340Z,0.00
2018-06-01T01:04:37.336Z,0.00
2018-06-01T01:05:37.336Z,0.00
2018-06-01T01:06:37.330Z,0.00
2018-06-01T01:07:37.327Z,0.00
2018-06-01T01:08:37.324Z,0.00
2018-06-01T01:09:37.320Z,0.00
2018-06-01T01:10:37.320Z,0.00
2018-06-01T01:11:37.312Z,0.00
2018-06-01T01:12:37.308Z,0.00
2018-06-01T01:13:37.507Z,0.00
2018-06-01T01:14:37.302Z,0.00
2018-06-01T01:15:37.302Z,0.00
2018-06-01T01:16:37.296Z,0.00
2018-06-01T01:17:37.292Z,0.00
2018-06-01T01:18:37.287Z,0.00
2018-06-01T01:19:37.286Z,0.00
2018-06-01T01:20:37.282Z,0.00
2018-06-01T01:21:37.278Z,0.00
2018-06-01T01:22:37.275Z,0.00
2018-06-01T01:23:37.270Z,0.00
2018-06-01T01:24:37.267Z,0.00
2018-06-01T01:25:37.264Z,0.00
2018-06-01T01:26:37.259Z,0.00
2018-06-01T01:27:37.258Z,0.00
2018-06-01T01:28:37.255Z,0.00
2018-06-01T01:29:37.252Z,0.00
2018-06-01T01:30:37.246Z,0.00
2018-06-01T01:31:37.245Z,0.00
2018-06-01T01:32:37.240Z,0.00
2018-06-01T01:33:37.236Z,0.00
2018-06-01T01:34:37.234Z,0.00
2018-06-01T01:35:37.233Z,0.00
2018-06-01T01:36:37.226Z,0.00
2018-06-01T01:37:37.223Z,0.00
2018-06-01T01:38:37.220Z,0.00
2018-06-01T01:39:37.215Z,0.00
2018-06-01T01:40:37.214Z,0.00
2018-06-01T01:41:37.209Z,0.00
2018-06-01T01:42:37.205Z,0.00
2018-06-01T01:43:37.203Z,0.00
2018-06-01T01:44:37.199Z,0.00
2018-06-01T01:45:37.197Z,0.00
2018-06-01T01:46:37.192Z,0.00
2018-06-01T01:47:37.390Z,0.00
2018-06-01T01:48:37.185Z,0.00
2018-06-01T01:49:37.182Z,0.00
2018-06-01T01:50:37.178Z,0.00
2018-06-01T01:51:37.176Z,0.00
2018-06-01T01:52:37.172Z,0.00
2018-06-01T01:53:37.169Z,0.00
2018-06-01T01:54:37.165Z,0.00
2018-06-01T01:55:37.161Z,0.00
2018-06-01T01:56:37.158Z,0.00
2018-06-01T01:57:37.156Z,0.00
2018-06-01T01:58:37.150Z,0.00
2018-06-01T01:59:37.148Z,0.00
2018-06-01T02:00:37.145Z,0.00
2018-06-01T02:01:37.140Z,0.00
2018-06-01T02:02:37.137Z,0.00
2018-06-01T02:03:37.132Z,0.00
2018-06-01T02:04:37.134Z,0.00
2018-06-01T02:05:37.127Z,0.00
2018-06-01T02:06:37.125Z,0.00
2018-06-01T02:07:37.120Z,0.00
2018-06-01T02:08:37.116Z,0.00
2018-06-01T02:09:37.111Z,0.00
2018-06-01T02:10:37.108Z,0.00
2018-06-01T02:11:37.104Z,0.00
2018-06-01T02:12:37.103Z,0.00
2018-06-01T02:13:37.097Z,0.00
2018-06-01T02:14:37.093Z,0.00
2018-06-01T02:15:37.090Z,0.00
2018-06-01T02:16:37.088Z,0.00
2018-06-01T02:17:37.083Z,0.00
2018-06-01T02:18:37.079Z,0.00
2018-06-01T02:19:37.076Z,0.00
2018-06-01T02:20:37.072Z,0.00
2018-06-01T02:21:37.069Z,0.00
2018-06-01T02:22:37.065Z,0.00
2018-06-01T02:23:37.061Z,0.00
2018-06-01T02:24:37.057Z,0.00
2018-06-01T02:25:37.054Z,0.00
2018-06-01T02:26:37.050Z,0.00
2018-06-01T02:27:37.046Z,0.00
2018-06-01T02:28:37.042Z,0.00
2018-06-01T02:29:37.039Z,0.00
2018-06-01T02:30:37.035Z,0.00
2018-06-01T02:31:37.032Z,0.00
2018-06-01T02:32:37.027Z,0.00
2018-06-01T02:33:37.025Z,0.00
2018-06-01T02:34:37.021Z,0.00
2018-06-01T02:35:37.022Z,0.00
2018-06-01T02:36:37.014Z,0.00
2018-06-01T02:37:37.014Z,0.00
2018-06-01T02:39:37.001Z,0.00
2018-06-01T02:40:36.998Z,0.00
2018-06-01T02:41:36.995Z,0.00
2018-06-01T02:42:36.990Z,0.00
2018-06-01T02:43:36.987Z,0.00
2018-06-01T02:44:36.984Z,0.00
2018-06-01T02:45:37.183Z,0.00
2018-06-01T02:46:36.982Z,0.00
2018-06-01T02:47:36.972Z,0.00
2018-06-01T02:48:36.973Z,0.00
2018-06-01T02:49:36.966Z,0.00
2018-06-01T02:50:36.962Z,0.00
2018-06-01T02:51:36.958Z,0.00
2018-06-01T02:52:36.956Z,0.00
2018-06-01T02:53:36.952Z,0.00
2018-06-01T02:54:36.955Z,0.00
2018-06-01T02:55:36.946Z,0.00
2018-06-01T02:56:36.945Z,0.00
2018-06-01T02:57:37.139Z,0.00
2018-06-01T02:58:36.932Z,0.00
2018-06-01T02:59:36.929Z,0.00
2018-06-01T03:00:36.926Z,0.00
2018-06-01T03:01:36.922Z,0.00
2018-06-01T03:02:36.918Z,0.00
2018-06-01T03:03:36.915Z,0.00
2018-06-01T03:04:36.914Z,0.00
2018-06-01T03:05:36.908Z,0.00
2018-06-01T03:06:36.914Z,0.00
2018-06-01T03:07:36.903Z,0.00
2018-06-01T03:08:36.898Z,0.00
2018-06-01T03:09:36.894Z,0.00
2018-06-01T03:10:36.892Z,0.00
2018-06-01T03:11:36.887Z,0.00
2018-06-01T03:12:36.884Z,0.00
2018-06-01T03:13:36.880Z,0.00
2018-06-01T03:14:36.879Z,0.00
2018-06-01T03:15:36.873Z,0.00
2018-06-01T03:16:36.870Z,0.00
2018-06-01T03:17:36.868Z,0.00
2018-06-01T03:18:36.864Z,0.00
2018-06-01T03:19:36.863Z,0.00
2018-06-01T03:20:36.856Z,0.00
2018-06-01T03:21:36.854Z,0.00
2018-06-01T03:22:36.853Z,0.00
2018-06-01T03:23:36.850Z,0.00
2018-06-01T03:24:36.844Z,0.00
2018-06-01T03:25:36.839Z,0.00
2018-06-01T03:26:36.836Z,0.00
2018-06-01T03:27:36.834Z,0.00
2018-06-01T03:28:36.829Z,0.00
2018-06-01T03:29:36.830Z,0.00
2018-06-01T03:30:36.822Z,0.00
2018-06-01T03:31:36.819Z,0.00
2018-06-01T03:32:36.815Z,0.00
2018-06-01T03:33:36.813Z,0.00
2018-06-01T03:34:36.815Z,0.00
2018-06-01T03:35:36.807Z,0.00
2018-06-01T03:36:36.803Z,0.00
2018-06-01T03:37:36.801Z,0.00
2018-06-01T03:38:36.796Z,0.00
2018-06-01T03:39:36.797Z,0.00
2018-06-01T03:40:36.789Z,0.00
2018-06-01T03:41:36.789Z,0.00
2018-06-01T03:42:36.782Z,0.00
2018-06-01T03:43:36.779Z,0.00
2018-06-01T03:44:36.777Z,0.00
2018-06-01T03:45:36.978Z,0.00
2018-06-01T03:46:36.769Z,0.00
2018-06-01T03:47:36.767Z,0.00
2018-06-01T03:48:36.768Z,0.00
2018-06-01T03:49:36.760Z,0.00
2018-06-01T03:50:36.757Z,0.00
2018-06-01T03:51:36.757Z,0.00
2018-06-01T03:52:36.749Z,0.00
2018-06-01T03:53:36.746Z,0.00
2018-06-01T03:54:36.946Z,0.00
2018-06-01T03:55:36.737Z,0.00
2018-06-01T03:56:36.736Z,0.00
2018-06-01T03:57:36.731Z,0.00
2018-06-01T03:58:36.726Z,0.00
2018-06-01T03:59:36.722Z,0.00
2018-06-01T04:00:36.921Z,0.00
2018-06-01T04:01:36.714Z,0.00
2018-06-01T04:02:36.709Z,0.00
2018-06-01T04:03:36.707Z,0.00
2018-06-01T04:04:36.703Z,0.00
2018-06-01T04:05:36.699Z,0.00
2018-06-01T04:06:36.694Z,0.00
2018-06-01T04:07:36.690Z,0.00
2018-06-01T04:08:36.685Z,0.00
2018-06-01T04:09:36.683Z,0.00
2018-06-01T04:10:36.878Z,0.00
2018-06-01T04:11:36.671Z,0.00
2018-06-01T04:12:36.668Z,0.00
2018-06-01T04:13:36.663Z,0.00
2018-06-01T04:14:36.658Z,0.00
2018-06-01T04:15:36.653Z,0.00
2018-06-01T04:16:36.650Z,0.00
2018-06-01T04:17:36.645Z,0.00
2018-06-01T04:18:36.643Z,0.00
2018-06-01T04:19:36.636Z,0.00
2018-06-01T04:20:36.637Z,0.00
2018-06-01T04:21:36.627Z,0.00
2018-06-01T04:22:36.622Z,0.00
2018-06-01T04:23:36.620Z,0.00
2018-06-01T04:24:36.613Z,0.00
2018-06-01T04:25:36.607Z,0.00
2018-06-01T04:26:36.601Z,0.00
2018-06-01T04:27:36.617Z,0.00
2018-06-01T04:28:36.592Z,0.00
2018-06-01T04:29:36.588Z,0.00
2018-06-01T04:30:36.586Z,0.00
2018-06-01T04:31:36.576Z,0.00
2018-06-01T04:32:36.572Z,0.00
2018-06-01T04:33:36.572Z,0.00
2018-06-01T04:34:36.562Z,0.00
2018-06-01T04:35:36.555Z,0.00
2018-06-01T04:36:36.552Z,0.00
2018-06-01T04:37:36.546Z,0.00
2018-06-01T04:38:36.543Z,0.00
2018-06-01T04:39:36.535Z,0.00
2018-06-01T04:40:36.529Z,0.00
2018-06-01T04:41:36.523Z,0.00
2018-06-01T04:42:36.517Z,0.00
2018-06-01T04:43:36.512Z,0.00
2018-06-01T04:44:36.506Z,0.00
2018-06-01T04:45:36.501Z,0.00
2018-06-01T04:46:36.496Z,0.00
2018-06-01T04:47:36.489Z,0.00
2018-06-01T04:48:36.497Z,0.00
2018-06-01T04:49:36.478Z,0.00
2018-06-01T04:50:36.475Z,0.00
2018-06-01T04:51:36.477Z,0.00
2018-06-01T04:52:36.462Z,0.00
2018-06-01T04:53:36.457Z,0.00
2018-06-01T04:54:36.451Z,0.00
2018-06-01T04:55:36.447Z,0.00
2018-06-01T04:56:36.440Z,0.00
2018-06-01T04:57:36.433Z,0.00
2018-06-01T04:58:36.427Z,0.00
2018-06-01T04:59:36.420Z,0.00
2018-06-01T05:00:36.420Z,0.00
2018-06-01T05:01:36.410Z,0.00
2018-06-01T05:02:36.403Z,0.00
2018-06-01T05:03:36.397Z,5.63
2018-06-01T05:04:36.396Z,5.63
2018-06-01T05:05:36.385Z,5.63
2018-06-01T05:06:36.382Z,5.63
2018-06-01T05:07:36.372Z,5.63
2018-06-01T05:08:36.367Z,5.63
2018-06-01T05:09:36.361Z,5.63
2018-06-01T05:10:36.356Z,5.63
2018-06-01T05:11:36.349Z,5.63
2018-06-01T05:12:36.343Z,5.63
2018-06-01T05:13:36.342Z,5.63
2018-06-01T05:14:36.330Z,5.63
2018-06-01T05:15:36.325Z,11.25
2018-06-01T05:16:36.329Z,11.25
2018-06-01T05:17:36.313Z,11.25
2018-06-01T05:18:36.312Z,11.25
2018-06-01T05:19:36.303Z,11.25
2018-06-01T05:20:36.301Z,11.25
2018-06-01T05:21:36.292Z,11.25
2018-06-01T05:22:36.286Z,11.25
2018-06-01T05:23:36.284Z,11.25
2018-06-01T05:24:36.272Z,11.25
2018-06-01T05:25:36.268Z,11.25
2018-06-01T05:26:36.260Z,16.88
2018-06-01T05:27:36.255Z,16.88
2018-06-01T05:28:36.249Z,16.88
2018-06-01T05:29:36.280Z,16.88
2018-06-01T05:30:36.239Z,16.88
2018-06-01T05:31:36.232Z,22.50
2018-06-01T05:32:36.226Z,22.50
2018-06-01T05:33:36.226Z,22.50
2018-06-01T05:34:36.218Z,28.13
2018-06-01T05:35:36.210Z,28.13
2018-06-01T05:36:36.206Z,33.75
2018-06-01T05:37:36.199Z,39.38
2018-06-01T05:38:36.192Z,39.38
2018-06-01T05:39:36.190Z,45.00
2018-06-01T05:40:36.382Z,50.63
2018-06-01T05:41:36.180Z,50.63
2018-06-01T05:42:36.168Z,56.25
2018-06-01T05:43:36.165Z,61.88
2018-06-01T05:44:36.159Z,67.50
2018-06-01T05:45:36.152Z,73.13
2018-06-01T05:46:36.143Z,84.38
2018-06-01T05:47:36.137Z,90.00
2018-06-01T05:48:36.133Z,95.63
2018-06-01T05:49:36.132Z,101.25
2018-06-01T05:50:36.120Z,106.88
2018-06-01T05:51:36.117Z,106.88
2018-06-01T05:52:36.108Z,118.13
2018-06-01T05:53:36.105Z,118.13
2018-06-01T05:54:36.100Z,123.75
2018-06-01T05:55:36.094Z,129.38
2018-06-01T05:56:36.084Z,129.38
2018-06-01T05:57:36.086Z,129.38
2018-06-01T05:58:36.076Z,129.38
2018-06-01T05:59:36.071Z,129.38
2018-06-01T06:00:36.063Z,129.38
2018-06-01T06:01:36.060Z,129.38
2018-06-01T06:02:36.050Z,129.38
2018-06-01T06:03:36.045Z,129.38
2018-06-01T06:04:36.076Z,135.00
2018-06-01T06:05:36.034Z,146.25
2018-06-01T06:06:36.029Z,151.88
2018-06-01T06:07:36.022Z,168.75
2018-06-01T06:08:36.018Z,180.00
2018-06-01T06:09:36.015Z,180.00
2018-06-01T06:10:36.012Z,185.63
2018-06-01T06:11:36.003Z,185.63
2018-06-01T06:12:35.994Z,180.00
2018-06-01T06:13:36.012Z,174.38
2018-06-01T06:14:35.985Z,174.38
2018-06-01T06:15:35.983Z,180.00
2018-06-01T06:16:35.974Z,185.63
2018-06-01T06:17:35.967Z,191.25
2018-06-01T06:18:35.970Z,196.88
2018-06-01T06:19:35.957Z,196.88
2018-06-01T06:20:35.956Z,196.88
2018-06-01T06:21:35.948Z,191.25
2018-06-01T06:22:35.947Z,202.50
2018-06-01T06:23:35.935Z,196.88
2018-06-01T06:24:35.940Z,191.25
2018-06-01T06:25:35.971Z,196.88
2018-06-01T06:26:35.932Z,213.75
2018-06-01T06:27:35.919Z,225.00
2018-06-01T06:28:35.917Z,225.00
2018-06-01T06:29:35.909Z,236.25
2018-06-01T06:30:35.907Z,236.25
2018-06-01T06:31:35.900Z,225.00
2018-06-01T06:32:35.895Z,208.13
2018-06-01T06:33:35.894Z,213.75
2018-06-01T06:34:35.884Z,208.13
2018-06-01T06:35:35.880Z,202.50
2018-06-01T06:36:35.876Z,191.25
2018-06-01T06:37:35.917Z,180.00
2018-06-01T06:38:35.868Z,180.00
2018-06-01T06:39:35.875Z,180.00
2018-06-01T06:40:35.860Z,163.13
2018-06-01T06:41:35.856Z,168.75
2018-06-01T06:42:35.859Z,174.38
2018-06-01T06:43:35.846Z,185.63
2018-06-01T06:44:35.846Z,196.88
2018-06-01T06:45:35.838Z,225.00
2018-06-01T06:46:35.833Z,230.63
2018-06-01T06:47:35.833Z,258.75
2018-06-01T06:48:35.825Z,253.13
2018-06-01T06:49:35.824Z,253.13
2018-06-01T06:50:35.815Z,270.00
2018-06-01T06:51:35.811Z,253.13
2018-06-01T06:52:35.810Z,225.00
2018-06-01T06:53:35.804Z,196.88
2018-06-01T06:54:35.798Z,191.25
2018-06-01T06:55:35.793Z,191.25
2018-06-01T06:56:35.790Z,191.25
2018-06-01T06:57:35.785Z,191.25
2018-06-01T06:58:35.780Z,191.25
2018-06-01T06:59:35.787Z,191.25
2018-06-01T07:00:35.771Z,202.50
2018-06-01T07:01:35.769Z,213.75
2018-06-01T07:02:35.966Z,202.50
2018-06-01T07:03:35.761Z,213.75
2018-06-01T07:04:35.757Z,241.88
2018-06-01T07:05:35.753Z,219.38
2018-06-01T07:06:35.752Z,191.25
2018-06-01T07:07:35.745Z,174.38
2018-06-01T07:08:35.738Z,185.63
2018-06-01T07:09:35.937Z,180.00
2018-06-01T07:10:35.764Z,168.75
2018-06-01T07:11:35.727Z,168.75
2018-06-01T07:12:35.725Z,185.63
2018-06-01T07:13:35.728Z,196.88
2018-06-01T07:14:35.715Z,185.63
2018-06-01T07:15:35.712Z,174.38
2018-06-01T07:16:35.710Z,157.50
2018-06-01T07:17:35.705Z,135.00
2018-06-01T07:18:35.697Z,135.00
2018-06-01T07:19:35.694Z,140.63
2018-06-01T07:20:35.690Z,146.25
2018-06-01T07:21:35.688Z,140.63
2018-06-01T07:22:35.679Z,118.13
2018-06-01T07:23:35.680Z,101.25
2018-06-01T07:24:35.674Z,84.38
2018-06-01T07:25:35.667Z,67.50
2018-06-01T07:26:35.662Z,61.88
2018-06-01T07:27:35.669Z,61.88
2018-06-01T07:28:35.657Z,50.63
2018-06-01T07:29:35.650Z,50.63
2018-06-01T07:30:35.848Z,50.63
2018-06-01T07:31:35.646Z,56.25
2018-06-01T07:32:35.640Z,67.50
2018-06-01T07:33:35.637Z,95.63
2018-06-01T07:34:35.629Z,118.13
2018-06-01T07:35:35.628Z,135.00
2018-06-01T07:36:35.621Z,140.63
2018-06-01T07:37:35.617Z,140.63
2018-06-01T07:38:35.619Z,135.00
2018-06-01T07:39:35.609Z,129.38
2018-06-01T07:40:35.606Z,146.25
2018-06-01T07:41:35.600Z,135.00
2018-06-01T07:42:35.602Z,118.13
2018-06-01T07:43:35.591Z,135.00
2018-06-01T07:44:35.587Z,151.88
2018-06-01T07:45:35.587Z,151.88
2018-06-01T07:46:35.582Z,174.38
2018-06-01T07:47:35.574Z,180.00
2018-06-01T07:48:35.570Z,174.38
2018-06-01T07:49:35.566Z,163.13
2018-06-01T07:50:35.562Z,163.13
2018-06-01T07:51:35.561Z,163.13
2018-06-01T07:52:35.562Z,151.88
2018-06-01T07:53:35.557Z,168.75
2018-06-01T07:54:35.595Z,185.63
2018-06-01T07:55:35.543Z,202.50
2018-06-01T07:56:35.538Z,208.13
2018-06-01T07:57:35.530Z,202.50
2018-06-01T07:58:35.523Z,185.63
2018-06-01T07:59:35.520Z,168.75
2018-06-01T08:00:35.518Z,168.75
2018-06-01T08:01:35.518Z,174.38
2018-06-01T08:02:35.708Z,196.88
2018-06-01T08:03:35.556Z,219.38
2018-06-01T08:04:35.493Z,219.38
2018-06-01T08:05:35.490Z,213.75
2018-06-01T08:06:35.482Z,213.75
2018-06-01T08:07:35.480Z,202.50
2018-06-01T08:08:35.473Z,185.63
2018-06-01T08:09:35.468Z,185.63
2018-06-01T08:10:35.466Z,191.25
2018-06-01T08:11:35.459Z,202.50
2018-06-01T08:12:35.454Z,208.13
2018-06-01T08:13:35.455Z,213.75
2018-06-01T08:14:35.445Z,213.75
2018-06-01T08:15:35.438Z,219.38
2018-06-01T08:16:35.432Z,225.00
2018-06-01T08:17:35.429Z,213.75
2018-06-01T08:18:35.419Z,213.75
2018-06-01T08:19:35.416Z,208.13
2018-06-01T08:20:35.414Z,208.13
2018-06-01T08:21:35.405Z,202.50
2018-06-01T08:22:35.399Z,202.50
2018-06-01T08:23:35.401Z,196.88
2018-06-01T08:24:35.390Z,202.50
2018-06-01T08:25:35.588Z,202.50
2018-06-01T08:26:35.380Z,208.13
2018-06-01T08:27:35.374Z,213.75
2018-06-01T08:28:35.379Z,225.00
2018-06-01T08:29:35.365Z,230.63
2018-06-01T08:30:35.361Z,270.00
2018-06-01T08:31:35.354Z,281.25
2018-06-01T08:32:35.357Z,275.63
2018-06-01T08:33:35.348Z,286.88
2018-06-01T08:34:35.339Z,298.13
2018-06-01T08:35:35.337Z,309.38
2018-06-01T08:36:35.333Z,292.50
2018-06-01T08:37:35.325Z,309.38
2018-06-01T08:38:35.324Z,270.00
2018-06-01T08:39:35.314Z,241.88
2018-06-01T08:40:35.318Z,225.00
2018-06-01T08:41:35.306Z,213.75
2018-06-01T08:42:35.300Z,202.50
2018-06-01T08:43:35.297Z,196.88
2018-06-01T08:44:35.291Z,191.25
2018-06-01T08:45:35.287Z,185.63
2018-06-01T08:46:35.309Z,185.63
2018-06-01T08:47:35.277Z,185.63
2018-06-01T08:48:35.271Z,180.00
2018-06-01T08:49:35.267Z,180.00
2018-06-01T08:50:35.265Z,185.63
2018-06-01T08:51:35.256Z,185.63
2018-06-01T08:52:35.311Z,191.25
2018-06-01T08:53:35.247Z,196.88
2018-06-01T08:54:35.241Z,191.25
2018-06-01T08:55:35.238Z,185.63
2018-06-01T08:56:35.232Z,196.88
2018-06-01T08:57:35.227Z,208.13
2018-06-01T08:58:35.229Z,225.00
2018-06-01T08:59:35.217Z,236.25
2018-06-01T09:00:35.214Z,253.13
2018-06-01T09:01:35.208Z,258.75
2018-06-01T09:02:35.203Z,258.75
2018-06-01T09:03:35.198Z,264.38
2018-06-01T09:04:35.200Z,247.50
2018-06-01T09:05:35.189Z,219.38
2018-06-01T09:06:35.187Z,202.50
2018-06-01T09:07:35.179Z,180.00
2018-06-01T09:08:35.176Z,168.75
2018-06-01T09:09:35.171Z,168.75
2018-06-01T09:10:35.167Z,157.50
2018-06-01T09:11:35.161Z,129.38
2018-06-01T09:12:35.157Z,118.13
2018-06-01T09:13:35.157Z,112.50
2018-06-01T09:14:35.146Z,129.38
2018-06-01T09:15:35.148Z,151.88
2018-06-01T09:16:35.139Z,146.25
2018-06-01T09:17:35.135Z,146.25
2018-06-01T09:18:35.129Z,140.63
2018-06-01T09:19:35.131Z,151.88
2018-06-01T09:20:35.120Z,151.88
2018-06-01T09:21:35.118Z,146.25
2018-06-01T09:22:35.109Z,163.13
2018-06-01T09:23:35.108Z,180.00
2018-06-01T09:24:35.101Z,185.63
2018-06-01T09:25:35.095Z,185.63
2018-06-01T09:26:35.090Z,180.00
2018-06-01T09:27:35.288Z,174.38
2018-06-01T09:28:35.084Z,168.75
2018-06-01T09:29:35.078Z,163.13
2018-06-01T09:30:35.072Z,163.13
2018-06-01T09:31:35.066Z,157.50
2018-06-01T09:32:35.068Z,168.75
2018-06-01T09:33:35.057Z,180.00
2018-06-01T09:34:35.057Z,202.50
2018-06-01T09:35:35.049Z,219.38
2018-06-01T09:36:35.044Z,236.25
2018-06-01T09:37:35.040Z,258.75
2018-06-01T09:38:35.037Z,275.63
2018-06-01T09:39:35.029Z,286.88
2018-06-01T09:40:35.024Z,303.75
2018-06-01T09:41:35.021Z,309.38
2018-06-01T09:42:35.018Z,292.50
2018-06-01T09:43:35.010Z,253.13
2018-06-01T09:44:35.008Z,230.63
2018-06-01T09:45:35.000Z,196.88
2018-06-01T09:46:35.036Z,168.75
2018-06-01T09:47:34.991Z,174.38
2018-06-01T09:48:34.988Z,163.13
2018-06-01T09:49:34.987Z,174.38
2018-06-01T09:50:34.977Z,168.75
2018-06-01T09:51:34.974Z,174.38
2018-06-01T09:52:34.969Z,191.25
2018-06-01T09:53:34.968Z,168.75
2018-06-01T09:54:34.962Z,174.38
2018-06-01T09:55:34.965Z,168.75
2018-06-01T09:56:34.953Z,180.00
2018-06-01T09:57:34.946Z,174.38
2018-06-01T09:58:34.942Z,174.38
2018-06-01T09:59:34.939Z,151.88
2018-06-01T10:00:34.934Z,180.00
2018-06-01T10:01:34.930Z,168.75
2018-06-01T10:02:34.924Z,180.00
2018-06-01T10:03:34.921Z,180.00
2018-06-01T10:04:34.920Z,180.00
2018-06-01T10:05:34.912Z,196.88
2018-06-01T10:06:34.904Z,213.75
2018-06-01T10:07:34.900Z,213.75
2018-06-01T10:08:34.895Z,219.38
2018-06-01T10:09:34.891Z,191.25
2018-06-01T10:10:34.888Z,168.75
2018-06-01T10:11:34.882Z,157.50
2018-06-01T10:12:34.876Z,140.63
2018-06-01T10:13:34.875Z,146.25
2018-06-01T10:14:34.868Z,140.63
2018-06-01T10:15:34.908Z,129.38
2018-06-01T10:16:34.858Z,151.88
2018-06-01T10:17:34.853Z,157.50
2018-06-01T10:18:34.850Z,151.88
2018-06-01T10:19:34.843Z,163.13
2018-06-01T10:20:34.840Z,163.13
2018-06-01T10:21:34.832Z,157.50
2018-06-01T10:22:34.829Z,146.25
2018-06-01T10:23:34.820Z,163.13
2018-06-01T10:24:34.820Z,157.50
2018-06-01T10:25:34.815Z,123.75
2018-06-01T10:26:34.812Z,129.38
2018-06-01T10:27:34.799Z,140.63
2018-06-01T10:28:34.796Z,129.38
2018-06-01T10:29:34.791Z,168.75
2018-06-01T10:30:34.783Z,180.00
2018-06-01T10:31:34.780Z,185.63
2018-06-01T10:32:34.773Z,196.88
2018-06-01T10:33:34.768Z,185.63
2018-06-01T10:34:34.764Z,185.63
2018-06-01T10:35:34.756Z,163.13
2018-06-01T10:36:34.752Z,151.88
2018-06-01T10:37:34.746Z,168.75
2018-06-01T10:38:34.741Z,157.50
2018-06-01T10:39:34.771Z,135.00
2018-06-01T10:40:34.730Z,135.00
2018-06-01T10:42:34.721Z,118.13
2018-06-01T10:43:34.712Z,146.25
2018-06-01T10:44:34.707Z,146.25
2018-06-01T10:45:34.704Z,129.38
2018-06-01T10:46:34.697Z,140.63
2018-06-01T10:47:34.691Z,106.88
2018-06-01T10:48:34.686Z,118.13
2018-06-01T10:49:34.727Z,118.13
2018-06-01T10:50:34.673Z,185.63
2018-06-01T10:51:34.672Z,180.00
2018-06-01T10:52:34.666Z,208.13
2018-06-01T10:53:34.661Z,196.88
2018-06-01T10:54:34.652Z,163.13
2018-06-01T10:55:34.646Z,157.50
2018-06-01T10:56:34.646Z,157.50
2018-06-01T10:57:34.641Z,151.88
2018-06-01T10:58:34.630Z,163.13
2018-06-01T10:59:34.624Z,129.38
2018-06-01T11:00:34.619Z,163.13
2018-06-01T11:01:34.624Z,151.88
2018-06-01T11:02:34.609Z,157.50
2018-06-01T11:03:34.606Z,157.50
2018-06-01T11:04:34.607Z,168.75
2018-06-01T11:05:34.593Z,118.13
2018-06-01T11:06:34.587Z,112.50
2018-06-01T11:07:34.583Z,146.25
2018-06-01T11:08:34.576Z,112.50
2018-06-01T11:09:34.574Z,106.88
2018-06-01T11:10:34.565Z,123.75
2018-06-01T11:11:34.559Z,118.13
2018-06-01T11:12:34.554Z,106.88
2018-06-01T11:13:34.548Z,106.88
2018-06-01T11:14:34.637Z,106.88
2018-06-01T11:15:34.544Z,151.88
2018-06-01T11:16:34.534Z,241.88
2018-06-01T11:17:34.528Z,174.38
2018-06-01T11:18:34.521Z,151.88
2018-06-01T11:19:34.515Z,174.38
2018-06-01T11:20:34.512Z,180.00
2018-06-01T11:21:34.517Z,168.75
2018-06-01T11:22:34.499Z,157.50
2018-06-01T11:23:34.492Z,157.50
2018-06-01T11:24:34.488Z,168.75
2018-06-01T11:25:34.482Z,208.13
2018-06-01T11:26:34.477Z,225.00
2018-06-01T11:27:34.471Z,241.88
2018-06-01T11:28:34.467Z,258.75
2018-06-01T11:29:34.461Z,253.13
2018-06-01T11:30:34.459Z,230.63
2018-06-01T11:31:34.451Z,174.38
2018-06-01T11:32:34.452Z,174.38
2018-06-01T11:33:34.444Z,168.75
2018-06-01T11:34:34.436Z,168.75
2018-06-01T11:35:34.434Z,146.25
2018-06-01T11:36:34.428Z,163.13
2018-06-01T11:37:34.422Z,146.25
2018-06-01T11:38:34.413Z,180.00
2018-06-01T11:39:34.411Z,191.25
2018-06-01T11:40:34.404Z,213.75
2018-06-01T11:41:34.396Z,247.50
2018-06-01T11:42:34.393Z,292.50
2018-06-01T11:43:34.395Z,326.25
2018-06-01T11:44:34.379Z,331.88
2018-06-01T11:45:34.373Z,315.00
2018-06-01T11:46:34.367Z,326.25
2018-06-01T11:47:34.361Z,376.88
2018-06-01T11:48:34.356Z,371.25
2018-06-01T11:49:34.350Z,331.88
2018-06-01T11:50:34.345Z,326.25
2018-06-01T11:51:34.337Z,331.88
2018-06-01T11:52:34.332Z,354.38
2018-06-01T11:53:34.328Z,348.75
2018-06-01T11:54:34.320Z,326.25
2018-06-01T11:55:34.315Z,348.75
2018-06-01T11:56:34.310Z,315.00
2018-06-01T11:57:34.305Z,298.13
2018-06-01T11:58:34.297Z,376.88
2018-06-01T11:59:34.295Z,388.13
2018-06-01T12:00:34.288Z,393.75
2018-06-01T12:01:34.281Z,410.63
2018-06-01T12:02:34.280Z,399.38
2018-06-01T12:03:34.269Z,393.75
2018-06-01T12:04:34.266Z,388.13
2018-06-01T12:05:34.361Z,405.00
2018-06-01T12:06:34.252Z,393.75
2018-06-01T12:07:34.253Z,376.88
2018-06-01T12:08:34.242Z,354.38
2018-06-01T12:09:34.241Z,343.13
2018-06-01T12:10:34.234Z,337.50
2018-06-01T12:11:34.225Z,326.25
2018-06-01T12:12:34.224Z,331.88
2018-06-01T12:13:34.214Z,343.13
2018-06-01T12:14:34.208Z,348.75
2018-06-01T12:15:34.203Z,416.25
2018-06-01T12:16:34.197Z,455.63
2018-06-01T12:17:34.242Z,540.00
2018-06-01T12:18:34.185Z,624.38
2018-06-01T12:19:34.185Z,663.75
2018-06-01T12:20:34.177Z,708.75
2018-06-01T12:21:34.171Z,753.75
2018-06-01T12:22:34.169Z,810.00
2018-06-01T12:23:34.161Z,810.00
2018-06-01T12:24:34.155Z,793.13
2018-06-01T12:25:34.155Z,810.00
2018-06-01T12:26:34.143Z,877.50
2018-06-01T12:27:34.146Z,990.00
2018-06-01T12:28:34.136Z,1057.50
2018-06-01T12:29:34.131Z,1102.50
2018-06-01T12:30:34.124Z,1018.13
2018-06-01T12:31:34.120Z,945.00
2018-06-01T12:32:34.119Z,821.25
2018-06-01T12:33:34.114Z,770.63
2018-06-01T12:34:34.108Z,838.13
2018-06-01T12:35:34.104Z,1293.75
2018-06-01T12:36:34.100Z,1158.75
2018-06-01T12:37:34.099Z,1164.38
2018-06-01T12:38:34.097Z,1153.13
2018-06-01T12:39:34.088Z,894.38
2018-06-01T12:40:34.087Z,900.00
2018-06-01T12:41:34.084Z,826.88
2018-06-01T12:42:34.077Z,613.13
2018-06-01T12:43:34.071Z,585.00
2018-06-01T12:44:34.069Z,528.75
2018-06-01T12:45:34.065Z,646.88
2018-06-01T12:46:34.060Z,573.75
2018-06-01T12:47:34.055Z,517.50
2018-06-01T12:48:34.056Z,568.13
2018-06-01T12:49:34.051Z,613.13
2018-06-01T12:50:34.043Z,613.13
2018-06-01T12:51:34.038Z,495.00